West Columbia, SC (29172)

12:36 PM EDT on August 27, 2014 (GMT -0400)
Cedarwood | Change Station
CLOSE
Current Station
Personal Weather Station
Location: West Columbia, SC
Elevation: 207 ft
Nearby Weather Stations

Elev 207 ft 33.94 °N, 81.14 °W | Updated 3 minutes ago

Partly Cloudy
Partly Cloudy
86.5 °F
Feels Like 86 °F
N
2.2
Wind Variable Wind from WNW

Today
High -- | Low -- °F
--% Chance of Precip.
Yesterday
High -- | Low -- °F
Precip. -- in
6:54 AM 7:56 PM
Waxing Crescent, 4% visible
Pressure 30.06 in
Visibility 10.0 miles
Clouds Few 5000 ft
Heat Index 86 °F
Dew Point 59 °F
Humidity 39%
Rainfall 0.00 in
Snow Depth Not available.
UV 9 out of 12
Pollen 8.40 out of 12
Ozone Good
Flu Activity Not available.
METAR KCAE 271556Z 34007KT 10SM FEW050 29/14 A3007 RMK AO2 SLP178 T02890144

More Conditions Fewer Conditions

Pressure 30.06 in
Visibility 10.0 miles
Clouds Few 5000 ft
Heat Index 86 °F
Dew Point 59 °F
Humidity 39%
Rainfall 0.00 in
Snow Depth Not available.
UV 9 out of 12
Pollen 8.40 out of 12
Ozone Good
Flu Activity Not available.
METAR KCAE 271556Z 34007KT 10SM FEW050 29/14 A3007 RMK AO2 SLP178 T02890144

More Conditions Fewer Conditions

10-Day Weather Forecast

Almanac

Astronomy

Aug. 27, 2014 Rise Set
Actual Time 6:54 AM EDT 7:56 PM EDT
Civil Twilight 6:28 AM EDT 8:22 PM EDT
Nautical Twilight 5:58 AM EDT 8:52 PM EDT
Astronomical Twilight 5:26 AM EDT 9:24 PM EDT
Moon 8:42 AM EDT 8:56 PM EDT
Length of Visible Light 13h 53m
Length of Day
13h 01m
Tomorrow will be 1m 59s shorter.
Waxing Crescent, 4% of the Moon is Illuminated
Today
Waxing Crescent
Sep 2
First Quarter
Sep 8
Full
Sep 15
Last Quarter
Sep 24
New

Today's Extremes

State Highs State Lows

Community

WunderPhotos

Upload Photos

1,747,727 photos uploaded!

Nearby

Air Quality

  Air Quality AQ Index Pollutant
Yesterday Good
OZONE
Current Good
OZONE
Wednesday Good
OZONE

Snow Depth

Station Depth Elevation
No new snow has been reported.

Earthquake Activity

City Distance Mag. Time & Date
No recent earthquake activity has been reported nearby.
Minimum magnitude displayed is 2.5.

Coastal Water Temperatures

Place Temperature
No Stations Reporting

Nearby Weather Stations